Time;durP1;ratioP1;P1;durP2;ratioP2;P2;SDS_P1;SDS_P2;PMS_P1;PMS_P2;Temp;Humidity;BMP_temperature;BMP_pressure;BME280_temperature;BME280_humidity;BME280_pressure;Samples;Min_cycle;Max_cycle;Signal;HPM_P1;HPM_P2
2023/06/18 00:00:47;;;;;;;12.63;11.38;;;;;;;;;;5094026;28;20044;-82
2023/06/18 00:03:14;;;;;;;12.32;11.13;;;;;;;;;;5094991;28;20105;-82
2023/06/18 00:05:42;;;;;;;12.35;11.10;;;;;;;;;;5093298;28;20048;-83
2023/06/18 00:08:09;;;;;;;11.55;10.38;;;;;;;;;;5094881;28;20492;-83
2023/06/18 00:10:37;;;;;;;11.85;10.60;;;;;;;;;;5094014;28;20048;-83
2023/06/18 00:13:04;;;;;;;12.52;10.68;;;;;;;;;;5094540;28;20474;-83
2023/06/18 00:15:32;;;;;;;11.98;10.77;;;;;;;;;;5093902;28;20070;-83
2023/06/18 00:18:00;;;;;;;11.73;10.52;;;;;;;;;;5093999;28;20397;-83
2023/06/18 00:20:27;;;;;;;16.85;11.15;;;;;;;;;;5093583;28;20131;-83
2023/06/18 00:22:54;;;;;;;12.60;11.30;;;;;;;;;;5093236;28;20048;-83
2023/06/18 00:25:21;;;;;;;12.48;11.18;;;;;;;;;;5093246;28;20109;-82
2023/06/18 00:27:49;;;;;;;13.05;11.75;;;;;;;;;;5094890;28;20056;-83
2023/06/18 00:30:16;;;;;;;12.10;10.90;;;;;;;;;;5094774;28;20105;-83
2023/06/18 00:32:44;;;;;;;12.32;11.13;;;;;;;;;;5093341;28;20048;-83
2023/06/18 00:35:14;;;;;;;12.15;10.95;;;;;;;;;;5093493;28;20056;-82
2023/06/18 00:37:45;;;;;;;12.40;11.20;;;;;;;;;;5093254;28;20052;-83
2023/06/18 00:40:12;;;;;;;13.57;11.73;;;;;;;;;;5093183;28;20048;-83
2023/06/18 00:42:40;;;;;;;12.85;10.95;;;;;;;;;;5094017;28;20443;-83
2023/06/18 00:45:12;;;;;;;12.57;11.30;;;;;;;;;;5094169;28;20044;-82
2023/06/18 00:47:42;;;;;;;14.45;11.82;;;;;;;;;;5092756;28;20044;-83
2023/06/18 00:50:12;;;;;;;13.65;12.25;;;;;;;;;;5092934;28;20044;-83
2023/06/18 00:52:44;;;;;;;13.38;11.93;;;;;;;;;;5093311;28;20404;-82
2023/06/18 00:55:12;;;;;;;13.98;12.50;;;;;;;;;;5096740;28;20052;-83
2023/06/18 00:57:41;;;;;;;13.88;11.98;;;;;;;;;;5098877;28;20123;-83
2023/06/18 01:00:12;;;;;;;15.15;11.98;;;;;;;;;;5093751;28;20124;-83
2023/06/18 01:02:45;;;;;;;15.02;12.55;;;;;;;;;;5092588;28;20078;-82
2023/06/18 01:05:14;;;;;;;12.98;11.68;;;;;;;;;;5092770;28;20109;-82
2023/06/18 01:07:42;;;;;;;13.93;12.35;;;;;;;;;;5092928;28;20051;-83
2023/06/18 01:10:15;;;;;;;13.57;12.18;;;;;;;;;;5092617;28;20514;-83
2023/06/18 01:12:46;;;;;;;14.73;12.68;;;;;;;;;;5093418;28;20051;-83
2023/06/18 01:15:13;;;;;;;13.65;12.35;;;;;;;;;;5093019;28;20047;-83
2023/06/18 01:17:46;;;;;;;13.20;11.80;;;;;;;;;;5092504;28;20505;-83
2023/06/18 01:20:14;;;;;;;13.97;12.57;;;;;;;;;;5092773;28;20616;-83
2023/06/18 01:22:46;;;;;;;14.25;12.75;;;;;;;;;;5091361;28;20044;-83
2023/06/18 01:25:14;;;;;;;14.38;12.88;;;;;;;;;;5093185;28;20086;-83
2023/06/18 01:27:46;;;;;;;13.90;12.50;;;;;;;;;;5093600;28;20108;-83
2023/06/18 01:30:14;;;;;;;15.55;13.27;;;;;;;;;;5093837;28;20044;-83
2023/06/18 01:32:42;;;;;;;14.15;12.68;;;;;;;;;;5093331;28;20102;-83
2023/06/18 01:35:16;;;;;;;14.05;12.65;;;;;;;;;;5092719;28;20044;-83
2023/06/18 01:38:02;;;;;;;13.80;12.25;;;;;;;;;;5092075;28;20043;-83
2023/06/18 01:40:36;;;;;;;13.95;12.55;;;;;;;;;;5092257;28;20079;-83
2023/06/18 01:43:11;;;;;;;14.20;12.77;;;;;;;;;;5091924;28;20043;-83
2023/06/18 01:45:46;;;;;;;13.80;12.50;;;;;;;;;;5093482;28;20044;-83
2023/06/18 01:48:15;;;;;;;15.20;13.60;;;;;;;;;;5092864;28;20083;-83
2023/06/18 01:50:43;;;;;;;15.05;13.55;;;;;;;;;;5092740;28;20452;-83
2023/06/18 01:53:13;;;;;;;15.48;13.98;;;;;;;;;;5092986;28;20083;-82
2023/06/18 01:55:41;;;;;;;17.00;14.13;;;;;;;;;;5093108;28;20076;-82
2023/06/18 01:58:08;;;;;;;16.65;14.10;;;;;;;;;;5093040;28;20048;-83
2023/06/18 02:00:36;;;;;;;18.05;14.30;;;;;;;;;;5092984;28;20040;-82
2023/06/18 02:03:03;;;;;;;16.10;14.00;;;;;;;;;;5092715;28;20044;-83
2023/06/18 02:05:31;;;;;;;15.25;13.70;;;;;;;;;;5091493;28;20101;-83
2023/06/18 02:07:58;;;;;;;16.35;14.75;;;;;;;;;;5091504;28;20079;-82
2023/06/18 02:10:25;;;;;;;16.02;14.48;;;;;;;;;;5092200;28;20055;-83
2023/06/18 02:12:55;;;;;;;15.15;13.65;;;;;;;;;;5104611;28;20052;-83
2023/06/18 02:15:22;;;;;;;14.65;13.07;;;;;;;;;;5092816;28;20522;-83
2023/06/18 02:17:50;;;;;;;16.90;13.80;;;;;;;;;;5091231;28;20480;-83
2023/06/18 02:20:20;;;;;;;16.90;13.85;;;;;;;;;;5091476;28;20135;-83
2023/06/18 02:22:49;;;;;;;14.82;13.32;;;;;;;;;;5091303;28;20055;-83
2023/06/18 02:25:18;;;;;;;14.68;12.73;;;;;;;;;;5091376;28;20056;-82
2023/06/18 02:27:53;;;;;;;15.95;14.35;;;;;;;;;;5092192;28;20400;-82
2023/06/18 02:30:20;;;;;;;15.90;14.20;;;;;;;;;;5091268;28;20056;-83
2023/06/18 02:32:48;;;;;;;14.50;13.05;;;;;;;;;;5092367;28;20052;-83
2023/06/18 02:35:16;;;;;;;17.30;13.80;;;;;;;;;;5090428;28;20052;-83
2023/06/18 02:37:44;;;;;;;16.45;14.75;;;;;;;;;;5091122;28;20079;-82
2023/06/18 02:40:14;;;;;;;16.15;14.35;;;;;;;;;;5090881;28;20048;-82
2023/06/18 02:42:48;;;;;;;15.57;13.98;;;;;;;;;;5090901;28;20044;-83
2023/06/18 02:45:16;;;;;;;;;;;;;;;;;;5091445;28;20051;-83
2023/06/18 02:47:44;;;;;;;18.83;14.98;;;;;;;;;;5091274;28;19920;-82
2023/06/18 02:50:12;;;;;;;17.52;15.60;;;;;;;;;;5091124;28;20040;-83
2023/06/18 02:52:40;;;;;;;19.52;15.55;;;;;;;;;;5091112;28;20089;-83
2023/06/18 02:55:07;;;;;;;17.92;15.48;;;;;;;;;;5092074;28;20078;-83
2023/06/18 02:57:35;;;;;;;17.25;15.45;;;;;;;;;;5091045;28;20090;-83
2023/06/18 03:00:04;;;;;;;16.58;14.88;;;;;;;;;;5092450;28;20105;-83
2023/06/18 03:02:32;;;;;;;18.30;15.82;;;;;;;;;;5091028;28;20044;-83
2023/06/18 03:04:59;;;;;;;17.20;14.18;;;;;;;;;;5092198;28;20085;-82
2023/06/18 03:07:27;;;;;;;16.27;14.57;;;;;;;;;;5090744;28;20071;-82
2023/06/18 03:09:55;;;;;;;20.88;15.35;;;;;;;;;;5090967;28;20067;-83
2023/06/18 03:12:22;;;;;;;19.23;15.00;;;;;;;;;;5090906;28;20408;-83
2023/06/18 03:14:49;;;;;;;19.02;16.02;;;;;;;;;;5090954;28;20404;-83
2023/06/18 03:17:16;;;;;;;19.65;15.32;;;;;;;;;;5092101;28;20090;-83
2023/06/18 03:19:44;;;;;;;17.88;15.98;;;;;;;;;;5091988;28;20105;-82
2023/06/18 03:22:11;;;;;;;18.05;15.38;;;;;;;;;;5090801;28;20489;-83
2023/06/18 03:24:40;;;;;;;16.85;14.85;;;;;;;;;;5091011;28;20434;-82
2023/06/18 03:27:08;;;;;;;18.80;15.00;;;;;;;;;;5092892;28;20083;-83
2023/06/18 03:29:35;;;;;;;18.25;15.27;;;;;;;;;;5106437;28;20109;-83
2023/06/18 03:32:03;;;;;;;18.13;16.20;;;;;;;;;;5090023;28;20048;-83
2023/06/18 03:34:33;;;;;;;16.85;15.10;;;;;;;;;;5090721;28;20086;-83
2023/06/18 03:37:00;;;;;;;17.38;15.52;;;;;;;;;;5091924;28;20052;-83
2023/06/18 03:39:28;;;;;;;17.45;15.15;;;;;;;;;;5092036;28;20051;-83
2023/06/18 03:41:55;;;;;;;16.75;14.30;;;;;;;;;;5094196;28;20056;-83
2023/06/18 03:44:23;;;;;;;17.83;15.20;;;;;;;;;;5095450;28;20044;-83
2023/06/18 03:46:50;;;;;;;16.05;14.35;;;;;;;;;;5094123;28;20177;-83
2023/06/18 03:49:17;;;;;;;22.45;16.48;;;;;;;;;;5095258;28;20115;-83
2023/06/18 03:51:45;;;;;;;17.70;15.85;;;;;;;;;;5095139;28;20467;-83
2023/06/18 03:54:12;;;;;;;21.23;16.60;;;;;;;;;;5094229;28;20079;-83
2023/06/18 03:56:39;;;;;;;18.85;16.88;;;;;;;;;;5094342;28;20080;-83
2023/06/18 03:59:07;;;;;;;21.42;17.05;;;;;;;;;;5095445;28;20561;-83
2023/06/18 04:01:34;;;;;;;19.15;16.92;;;;;;;;;;5093534;28;20040;-83
2023/06/18 04:04:03;;;;;;;19.85;17.17;;;;;;;;;;5094825;28;20048;-83
2023/06/18 04:06:30;;;;;;;19.08;16.80;;;;;;;;;;5093886;28;20045;-82
2023/06/18 04:08:58;;;;;;;18.45;16.45;;;;;;;;;;5093722;28;20067;-82
2023/06/18 04:11:26;;;;;;;17.60;15.90;;;;;;;;;;5093550;28;20117;-83
2023/06/18 04:13:54;;;;;;;16.92;15.18;;;;;;;;;;5093594;28;20059;-83
2023/06/18 04:16:21;;;;;;;15.70;14.20;;;;;;;;;;5093586;28;20052;-83
2023/06/18 04:18:48;;;;;;;15.05;13.55;;;;;;;;;;5094865;28;20070;-82
2023/06/18 04:21:15;;;;;;;18.48;13.70;;;;;;;;;;5093609;28;20503;-83
2023/06/18 04:23:43;;;;;;;15.60;14.00;;;;;;;;;;5093797;28;20093;-83
2023/06/18 04:26:10;;;;;;;14.52;13.02;;;;;;;;;;5092909;28;20266;-83
2023/06/18 04:28:37;;;;;;;14.40;12.90;;;;;;;;;;5093180;28;20048;-82
2023/06/18 04:31:04;;;;;;;14.52;13.02;;;;;;;;;;5094061;28;20117;-82
2023/06/18 04:33:32;;;;;;;13.50;12.20;;;;;;;;;;5094443;28;20097;-82
2023/06/18 04:35:59;;;;;;;13.43;12.05;;;;;;;;;;5093584;28;20117;-82
2023/06/18 04:38:27;;;;;;;13.43;12.02;;;;;;;;;;5094214;28;20052;-82
2023/06/18 04:40:54;;;;;;;12.90;11.57;;;;;;;;;;5094480;28;20093;-83
2023/06/18 04:43:21;;;;;;;12.85;11.65;;;;;;;;;;5094347;28;20052;-83
2023/06/18 04:45:51;;;;;;;12.85;11.68;;;;;;;;;;5109229;28;20047;-82
2023/06/18 04:48:19;;;;;;;13.27;11.98;;;;;;;;;;5094221;28;20090;-82
2023/06/18 04:50:46;;;;;;;13.35;11.98;;;;;;;;;;5092849;28;20048;-82
2023/06/18 04:53:14;;;;;;;11.45;10.35;;;;;;;;;;5094149;28;20044;-82
2023/06/18 04:55:41;;;;;;;12.25;10.85;;;;;;;;;;5092766;28;20066;-82
2023/06/18 04:58:09;;;;;;;11.65;10.55;;;;;;;;;;5092757;28;20304;-82
2023/06/18 05:00:36;;;;;;;11.55;10.35;;;;;;;;;;5092709;28;20109;-82
2023/06/18 05:03:04;;;;;;;12.10;10.90;;;;;;;;;;5092743;28;20086;-83
2023/06/18 05:05:32;;;;;;;11.38;10.27;;;;;;;;;;5092797;28;20051;-82
2023/06/18 05:07:59;;;;;;;12.45;10.02;;;;;;;;;;5093820;28;20051;-82
2023/06/18 05:10:26;;;;;;;10.27;9.27;;;;;;;;;;5093619;28;20051;-82
2023/06/18 05:12:54;;;;;;;12.45;9.05;;;;;;;;;;5093758;28;20040;-83
2023/06/18 05:15:21;;;;;;;9.77;8.80;;;;;;;;;;5096052;28;20079;-83
2023/06/18 05:17:48;;;;;;;9.32;8.45;;;;;;;;;;5113218;28;20052;-83
2023/06/18 05:20:15;;;;;;;9.23;8.38;;;;;;;;;;5114065;28;20079;-83
2023/06/18 05:22:43;;;;;;;9.25;8.38;;;;;;;;;;5112865;28;20048;-83
2023/06/18 05:25:10;;;;;;;10.27;9.18;;;;;;;;;;5112762;28;20092;-82
2023/06/18 05:27:37;;;;;;;10.70;9.48;;;;;;;;;;5114014;28;20109;-80
2023/06/18 05:30:04;;;;;;;9.52;7.78;;;;;;;;;;5112800;28;20058;-81
2023/06/18 05:32:32;;;;;;;9.13;8.10;;;;;;;;;;5112306;28;20055;-80
2023/06/18 05:34:59;;;;;;;8.95;8.05;;;;;;;;;;5112469;28;20063;-81
2023/06/18 05:37:26;;;;;;;9.20;8.32;;;;;;;;;;5113442;28;20047;-80
2023/06/18 05:39:54;;;;;;;8.80;8.00;;;;;;;;;;5112404;28;20082;-80
2023/06/18 05:42:21;;;;;;;9.50;8.60;;;;;;;;;;5107047;28;20043;-81
2023/06/18 05:44:48;;;;;;;9.13;8.40;;;;;;;;;;5113163;28;20040;-80
2023/06/18 05:47:16;;;;;;;8.82;7.90;;;;;;;;;;5113552;28;20062;-80
2023/06/18 05:49:43;;;;;;;7.68;7.07;;;;;;;;;;5113554;28;20159;-80
2023/06/18 05:52:10;;;;;;;9.93;7.88;;;;;;;;;;5112239;28;20093;-80
2023/06/18 05:54:39;;;;;;;7.65;6.95;;;;;;;;;;5113539;28;20051;-80
2023/06/18 05:57:06;;;;;;;7.57;6.88;;;;;;;;;;5113586;28;20059;-81
2023/06/18 05:59:33;;;;;;;7.97;7.28;;;;;;;;;;5112960;28;20060;-80
2023/06/18 06:02:00;;;;;;;8.30;7.50;;;;;;;;;;5125809;28;20044;-81
2023/06/18 06:04:28;;;;;;;7.60;7.00;;;;;;;;;;5111048;28;20055;-80
2023/06/18 06:06:55;;;;;;;7.85;7.18;;;;;;;;;;5113406;28;20484;-81
2023/06/18 06:09:22;;;;;;;217.35;73.68;;;;;;;;;;5110510;28;20130;-81
2023/06/18 06:11:50;;;;;;;322.63;188.23;;;;;;;;;;5112173;28;20047;-81
2023/06/18 06:14:17;;;;;;;9.10;7.20;;;;;;;;;;5112050;28;20051;-80
2023/06/18 06:16:45;;;;;;;126.78;30.88;;;;;;;;;;5113209;28;20126;-80
2023/06/18 06:19:12;;;;;;;7.93;6.85;;;;;;;;;;5112617;28;20063;-80
2023/06/18 06:21:39;;;;;;;9.55;7.47;;;;;;;;;;5111568;28;20082;-81
2023/06/18 06:24:06;;;;;;;76.93;69.68;;;;;;;;;;5109956;28;20105;-81
2023/06/18 06:26:34;;;;;;;8.60;7.35;;;;;;;;;;5111732;28;20051;-80
2023/06/18 06:29:01;;;;;;;19.55;9.30;;;;;;;;;;5113020;28;20446;-80
2023/06/18 06:31:28;;;;;;;7.43;6.82;;;;;;;;;;5112466;28;20059;-81
2023/06/18 06:33:55;;;;;;;8.27;7.47;;;;;;;;;;5111710;28;20695;-80
2023/06/18 06:36:23;;;;;;;7.22;6.65;;;;;;;;;;5111503;28;20048;-82
2023/06/18 06:38:50;;;;;;;7.30;6.57;;;;;;;;;;5111742;28;20104;-81
2023/06/18 06:41:17;;;;;;;7.03;6.43;;;;;;;;;;5111316;28;20462;-81
2023/06/18 06:43:45;;;;;;;8.18;7.30;;;;;;;;;;5112746;28;20108;-81
2023/06/18 06:46:12;;;;;;;9.50;7.63;;;;;;;;;;5112648;28;20082;-82
2023/06/18 06:48:42;;;;;;;7.05;6.45;;;;;;;;;;5111432;28;20044;-81
2023/06/18 06:51:09;;;;;;;7.70;7.07;;;;;;;;;;5111563;28;20181;-80
2023/06/18 06:53:37;;;;;;;7.55;6.93;;;;;;;;;;5110070;28;20052;-81
2023/06/18 06:56:04;;;;;;;7.97;7.22;;;;;;;;;;5111214;28;20405;-81
2023/06/18 06:58:32;;;;;;;8.02;7.25;;;;;;;;;;5111279;28;20043;-80
2023/06/18 07:01:00;;;;;;;8.18;7.28;;;;;;;;;;5111261;28;20055;-81
2023/06/18 07:03:27;;;;;;;7.93;7.03;;;;;;;;;;5111139;28;20040;-80
2023/06/18 07:05:55;;;;;;;6.50;6.00;;;;;;;;;;5112418;28;20047;-82
2023/06/18 07:08:22;;;;;;;6.75;6.15;;;;;;;;;;5111077;28;20079;-81
2023/06/18 07:10:49;;;;;;;7.38;6.47;;;;;;;;;;5112954;28;20048;-80
2023/06/18 07:13:18;;;;;;;6.97;6.43;;;;;;;;;;5112501;28;20048;-82
2023/06/18 07:15:45;;;;;;;7.20;6.60;;;;;;;;;;5116160;28;20425;-82
2023/06/18 07:18:13;;;;;;;6.85;6.22;;;;;;;;;;5130287;27;20051;-83
2023/06/18 07:20:40;;;;;;;6.70;6.00;;;;;;;;;;5115629;28;20082;-83
2023/06/18 07:23:07;;;;;;;5.88;5.47;;;;;;;;;;5115792;28;20047;-84
2023/06/18 07:25:34;;;;;;;6.22;5.72;;;;;;;;;;5116685;28;20096;-84
2023/06/18 07:28:02;;;;;;;6.47;5.93;;;;;;;;;;5114552;28;20069;-82
2023/06/18 07:30:29;;;;;;;6.00;5.60;;;;;;;;;;5115010;28;20137;-82
2023/06/18 07:32:57;;;;;;;6.57;5.68;;;;;;;;;;5114836;28;20051;-82
2023/06/18 07:35:24;;;;;;;6.65;6.00;;;;;;;;;;5115074;28;20522;-82
2023/06/18 07:37:51;;;;;;;5.90;5.50;;;;;;;;;;5114912;28;20085;-82
2023/06/18 07:40:19;;;;;;;6.50;5.82;;;;;;;;;;5114680;28;20059;-82
2023/06/18 07:42:47;;;;;;;5.95;5.45;;;;;;;;;;5115077;28;20113;-82
2023/06/18 07:45:14;;;;;;;7.93;5.50;;;;;;;;;;5114768;28;20052;-82
2023/06/18 07:47:41;;;;;;;6.38;5.80;;;;;;;;;;5114737;28;20104;-82
2023/06/18 07:50:09;;;;;;;6.85;5.68;;;;;;;;;;5115896;28;20081;-82
2023/06/18 07:52:36;;;;;;;6.03;5.53;;;;;;;;;;5114563;28;20500;-83
2023/06/18 07:55:03;;;;;;;6.45;5.82;;;;;;;;;;5114765;28;20457;-82
2023/06/18 07:57:30;;;;;;;10.65;5.68;;;;;;;;;;5115945;28;20048;-82
2023/06/18 07:59:58;;;;;;;4.88;4.47;;;;;;;;;;5114434;28;20097;-83
2023/06/18 08:02:25;;;;;;;5.22;4.72;;;;;;;;;;5116049;28;20043;-84
2023/06/18 08:04:52;;;;;;;6.18;5.05;;;;;;;;;;5114775;28;20047;-83
2023/06/18 08:07:20;;;;;;;5.07;4.65;;;;;;;;;;5115946;28;20498;-84
2023/06/18 08:09:47;;;;;;;5.05;4.75;;;;;;;;;;5114752;28;20495;-86
2023/06/18 08:12:14;;;;;;;4.32;4.00;;;;;;;;;;5114644;28;20040;-83
2023/06/18 08:14:45;;;;;;;5.00;4.60;;;;;;;;;;5115255;28;20047;-82
2023/06/18 08:17:15;;;;;;;4.78;4.30;;;;;;;;;;5115916;28;20075;-84
2023/06/18 08:19:47;;;;;;;4.63;4.32;;;;;;;;;;5114549;28;20040;-85
2023/06/18 08:22:15;;;;;;;6.78;4.78;;;;;;;;;;5114765;28;20130;-84
2023/06/18 08:24:42;;;;;;;4.65;4.35;;;;;;;;;;5114083;28;20044;-86
2023/06/18 08:27:15;;;;;;;5.13;4.15;;;;;;;;;;5114421;28;20048;-85
2023/06/18 08:29:42;;;;;;;5.75;5.00;;;;;;;;;;5114631;28;20047;-82
2023/06/18 08:32:10;;;;;;;5.55;4.88;;;;;;;;;;5114223;28;20051;-85
2023/06/18 08:34:42;;;;;;;4.68;4.28;;;;;;;;;;5129701;27;20051;-82
2023/06/18 08:37:10;;;;;;;5.38;4.57;;;;;;;;;;5114809;28;20508;-82
2023/06/18 08:39:37;;;;;;;4.63;4.20;;;;;;;;;;5113887;28;20047;-82
2023/06/18 08:42:05;;;;;;;8.45;4.60;;;;;;;;;;5115109;28;20047;-83
2023/06/18 08:44:34;;;;;;;6.45;4.70;;;;;;;;;;5115194;28;20055;-83
2023/06/18 08:47:03;;;;;;;4.63;4.22;;;;;;;;;;5113766;28;20043;-82
2023/06/18 08:49:31;;;;;;;5.03;4.43;;;;;;;;;;5113705;28;20048;-84
2023/06/18 08:52:00;;;;;;;6.78;4.20;;;;;;;;;;5113719;28;20047;-86
2023/06/18 08:54:32;;;;;;;5.32;4.35;;;;;;;;;;5113854;28;20083;-82
2023/06/18 08:57:08;;;;;;;5.40;4.93;;;;;;;;;;5113828;28;20077;-82
2023/06/18 08:59:38;;;;;;;4.55;4.25;;;;;;;;;;5115009;28;20063;-82
2023/06/18 09:02:06;;;;;;;4.55;4.15;;;;;;;;;;5113784;28;20044;-86
2023/06/18 09:04:35;;;;;;;5.45;4.95;;;;;;;;;;5113784;28;20047;-83
2023/06/18 09:07:03;;;;;;;4.32;4.03;;;;;;;;;;5113509;28;20047;-83
2023/06/18 09:09:30;;;;;;;4.20;3.85;;;;;;;;;;5113702;28;20043;-84
2023/06/18 09:11:58;;;;;;;4.95;3.90;;;;;;;;;;5113568;28;20043;-83
2023/06/18 09:14:25;;;;;;;6.20;3.70;;;;;;;;;;5114574;28;20075;-83
2023/06/18 09:16:54;;;;;;;4.40;4.10;;;;;;;;;;5113551;28;20040;-83
2023/06/18 09:19:23;;;;;;;4.40;4.00;;;;;;;;;;5113345;28;20044;-84
2023/06/18 09:21:52;;;;;;;4.55;4.13;;;;;;;;;;5113522;28;20052;-84
2023/06/18 09:24:22;;;;;;;4.60;3.67;;;;;;;;;;5114660;28;20048;-87
2023/06/18 09:27:03;;;;;;;4.45;3.80;;;;;;;;;;5113194;28;20047;-84
2023/06/18 09:29:33;;;;;;;3.90;3.70;;;;;;;;;;5113260;28;20054;-83
2023/06/18 09:32:11;;;;;;;4.03;3.70;;;;;;;;;;5113122;28;20538;-86
2023/06/18 09:34:39;;;;;;;4.78;4.38;;;;;;;;;;5113652;28;20124;-83
2023/06/18 09:37:07;;;;;;;4.07;3.88;;;;;;;;;;5112211;28;20044;-84
2023/06/18 09:39:36;;;;;;;4.00;3.70;;;;;;;;;;5113241;28;20055;-82
2023/06/18 09:42:06;;;;;;;5.25;3.70;;;;;;;;;;5112843;28;20456;-82
2023/06/18 09:44:34;;;;;;;4.55;3.58;;;;;;;;;;5113358;28;20538;-83
2023/06/18 09:47:03;;;;;;;4.25;3.90;;;;;;;;;;5113927;28;20075;-83
2023/06/18 09:49:30;;;;;;;3.80;3.60;;;;;;;;;;5118321;28;20040;-83
2023/06/18 09:51:57;;;;;;;3.85;3.60;;;;;;;;;;5127895;28;20090;-84
2023/06/18 09:54:37;;;;;;;4.38;4.07;;;;;;;;;;5112934;28;20043;-82
2023/06/18 09:57:06;;;;;;;4.13;3.72;;;;;;;;;;5113976;28;20039;-84
2023/06/18 09:59:33;;;;;;;5.32;3.92;;;;;;;;;;5112731;28;20098;-82
2023/06/18 10:02:00;;;;;;;4.32;3.92;;;;;;;;;;5113798;28;20105;-86
2023/06/18 10:04:28;;;;;;;4.45;4.10;;;;;;;;;;5113312;28;20116;-85
2023/06/18 10:06:59;;;;;;;4.57;4.18;;;;;;;;;;5114188;28;20051;-89
2023/06/18 10:09:30;;;;;;;4.93;4.53;;;;;;;;;;5113254;28;20047;-83
2023/06/18 10:11:59;;;;;;;4.97;4.18;;;;;;;;;;5112629;28;20074;-83
2023/06/18 10:14:28;;;;;;;4.55;4.25;;;;;;;;;;5112351;28;20101;-82
2023/06/18 10:16:59;;;;;;;5.55;4.30;;;;;;;;;;5112489;28;20082;-83
2023/06/18 10:19:26;;;;;;;4.05;3.75;;;;;;;;;;5112482;28;20055;-83
2023/06/18 10:22:03;;;;;;;4.40;4.10;;;;;;;;;;5112367;28;20047;-86
2023/06/18 10:24:35;;;;;;;4.47;4.03;;;;;;;;;;5112625;28;20052;-87
2023/06/18 10:27:03;;;;;;;4.18;3.97;;;;;;;;;;5113847;28;20056;-85
2023/06/18 10:29:32;;;;;;;4.57;4.18;;;;;;;;;;5112755;28;20491;-84
2023/06/18 10:32:03;;;;;;;4.50;4.13;;;;;;;;;;5113183;28;20043;-84
2023/06/18 10:34:31;;;;;;;4.57;4.28;;;;;;;;;;5112919;28;20445;-86
2023/06/18 10:36:59;;;;;;;4.10;3.80;;;;;;;;;;5112713;28;20044;-82
2023/06/18 10:39:27;;;;;;;4.75;4.20;;;;;;;;;;5112584;28;20113;-84
2023/06/18 10:41:55;;;;;;;3.90;3.53;;;;;;;;;;5111363;28;20091;-82
2023/06/18 10:44:49;;;;;;;4.20;3.90;;;;;;;;;;5113151;28;20044;-85
2023/06/18 10:47:21;;;;;;;4.47;4.18;;;;;;;;;;5112632;28;20147;-86
2023/06/18 10:50:08;;;;;;;5.07;4.25;;;;;;;;;;5117557;28;20439;-84
2023/06/18 10:52:36;;;;;;;4.45;4.13;;;;;;;;;;5116670;28;20051;-85
2023/06/18 10:55:07;;;;;;;5.97;4.70;;;;;;;;;;5116577;28;20553;-85
2023/06/18 10:57:45;;;;;;;4.75;4.40;;;;;;;;;;5117626;28;20081;-85
2023/06/18 11:00:28;;;;;;;6.18;4.43;;;;;;;;;;5116663;28;20052;-89
2023/06/18 11:03:00;;;;;;;4.60;4.30;;;;;;;;;;5116828;28;20058;-85
2023/06/18 11:05:34;;;;;;;5.10;4.70;;;;;;;;;;5116432;28;20043;-83
2023/06/18 11:08:05;;;;;;;4.40;4.10;;;;;;;;;;5118332;28;20052;-84
2023/06/18 11:10:40;;;;;;;3.90;3.60;;;;;;;;;;5123814;28;20100;-84
2023/06/18 11:13:08;;;;;;;4.25;3.95;;;;;;;;;;5116043;28;20048;-84
2023/06/18 11:15:36;;;;;;;4.68;4.03;;;;;;;;;;5116314;28;20097;-84
2023/06/18 11:18:04;;;;;;;4.22;4.00;;;;;;;;;;5115999;28;20055;-85
2023/06/18 11:20:33;;;;;;;4.50;4.10;;;;;;;;;;5115966;28;20403;-84
2023/06/18 11:23:01;;;;;;;6.00;4.55;;;;;;;;;;5115818;28;20044;-85
2023/06/18 11:25:29;;;;;;;4.10;3.80;;;;;;;;;;5116039;28;20050;-84
2023/06/18 11:28:00;;;;;;;4.25;4.05;;;;;;;;;;5115909;28;20047;-86
2023/06/18 11:30:27;;;;;;;4.85;4.35;;;;;;;;;;5115504;28;20138;-83
2023/06/18 11:32:55;;;;;;;4.30;4.00;;;;;;;;;;5116559;28;20084;-82
2023/06/18 11:35:22;;;;;;;4.50;4.10;;;;;;;;;;5115614;28;20048;-84
2023/06/18 11:37:49;;;;;;;4.43;4.10;;;;;;;;;;5115839;28;20130;-83
2023/06/18 11:40:17;;;;;;;4.95;4.47;;;;;;;;;;5116342;27;20051;-87
2023/06/18 11:42:51;;;;;;;4.43;4.03;;;;;;;;;;5115419;28;20074;-85
2023/06/18 11:45:19;;;;;;;4.10;3.80;;;;;;;;;;5115847;28;20051;-87
2023/06/18 11:47:51;;;;;;;3.90;3.60;;;;;;;;;;5117069;28;20097;-83
2023/06/18 11:50:20;;;;;;;4.63;4.28;;;;;;;;;;5115003;28;20138;-84
2023/06/18 11:52:48;;;;;;;4.28;4.07;;;;;;;;;;5115412;28;20047;-86
2023/06/18 11:55:15;;;;;;;4.15;3.83;;;;;;;;;;5115060;28;20087;-83
2023/06/18 11:57:43;;;;;;;4.80;4.40;;;;;;;;;;5114937;28;20187;-83
2023/06/18 12:00:12;;;;;;;4.18;3.78;;;;;;;;;;5115196;28;20047;-84
2023/06/18 12:02:39;;;;;;;4.43;4.13;;;;;;;;;;5114300;28;20048;-82
2023/06/18 12:05:08;;;;;;;4.50;4.20;;;;;;;;;;5116123;28;20052;-84
2023/06/18 12:07:38;;;;;;;4.28;4.05;;;;;;;;;;5114737;28;20116;-84
2023/06/18 12:10:07;;;;;;;4.53;4.20;;;;;;;;;;5114826;28;20051;-86
2023/06/18 12:12:41;;;;;;;4.60;3.92;;;;;;;;;;5115301;28;20052;-83
2023/06/18 12:15:20;;;;;;;4.70;4.20;;;;;;;;;;5114519;28;20051;-83
2023/06/18 12:17:50;;;;;;;4.65;4.35;;;;;;;;;;5115631;28;20707;-82
2023/06/18 12:20:22;;;;;;;4.75;4.30;;;;;;;;;;5115662;27;20050;-83
2023/06/18 12:22:50;;;;;;;4.72;4.32;;;;;;;;;;5113490;28;20090;-85
2023/06/18 12:25:18;;;;;;;4.72;3.95;;;;;;;;;;5117223;28;20047;-85
2023/06/18 12:27:46;;;;;;;4.40;4.10;;;;;;;;;;5126706;27;20397;-83
2023/06/18 12:30:13;;;;;;;4.93;4.53;;;;;;;;;;5114013;28;20453;-83
2023/06/18 12:32:40;;;;;;;4.68;4.28;;;;;;;;;;5115146;28;20180;-81
2023/06/18 12:35:11;;;;;;;4.57;4.18;;;;;;;;;;5113917;28;20507;-84
2023/06/18 12:37:41;;;;;;;4.47;4.18;;;;;;;;;;5114813;28;20068;-83
2023/06/18 12:40:18;;;;;;;4.38;3.97;;;;;;;;;;5114132;28;20104;-84
2023/06/18 12:42:46;;;;;;;4.65;4.25;;;;;;;;;;5115702;27;20047;-85
2023/06/18 12:45:14;;;;;;;4.63;4.22;;;;;;;;;;5113871;28;20089;-83
2023/06/18 12:47:42;;;;;;;4.38;3.97;;;;;;;;;;5115204;28;20048;-84
2023/06/18 12:50:10;;;;;;;4.15;3.92;;;;;;;;;;5113715;28;20047;-82
2023/06/18 12:52:41;;;;;;;4.63;4.30;;;;;;;;;;5115078;28;20079;-86
2023/06/18 12:55:12;;;;;;;4.28;3.83;;;;;;;;;;5114265;28;20055;-82
2023/06/18 12:57:48;;;;;;;4.05;3.78;;;;;;;;;;5115003;28;20075;-83
2023/06/18 13:00:22;;;;;;;4.82;4.22;;;;;;;;;;5113112;28;20116;-83
2023/06/18 13:02:51;;;;;;;4.70;4.32;;;;;;;;;;5113289;28;20048;-82
2023/06/18 13:05:19;;;;;;;4.10;3.90;;;;;;;;;;5113378;28;20113;-86
2023/06/18 13:07:51;;;;;;;4.13;3.83;;;;;;;;;;5113623;28;20453;-81
2023/06/18 13:10:18;;;;;;;4.53;3.90;;;;;;;;;;5113232;28;20430;-83
2023/06/18 13:12:46;;;;;;;4.30;4.00;;;;;;;;;;5113205;28;20047;-81
2023/06/18 13:15:14;;;;;;;4.80;4.50;;;;;;;;;;5114270;28;20051;-82
2023/06/18 13:17:45;;;;;;;4.68;4.07;;;;;;;;;;5114482;28;20047;-82
2023/06/18 13:20:13;;;;;;;4.53;4.05;;;;;;;;;;5114314;28;20127;-82
2023/06/18 13:22:40;;;;;;;4.35;3.95;;;;;;;;;;5114185;28;20097;-82
2023/06/18 13:25:09;;;;;;;4.38;4.07;;;;;;;;;;5114396;28;20043;-83
2023/06/18 13:27:36;;;;;;;7.78;4.22;;;;;;;;;;5113121;28;20533;-83
2023/06/18 13:30:03;;;;;;;4.50;4.13;;;;;;;;;;5113181;28;20454;-84
2023/06/18 13:32:30;;;;;;;5.32;4.82;;;;;;;;;;5114134;28;20051;-83
2023/06/18 13:34:58;;;;;;;4.80;4.40;;;;;;;;;;5113352;28;20571;-82
2023/06/18 13:37:27;;;;;;;4.50;4.10;;;;;;;;;;5113972;28;20138;-83
2023/06/18 13:39:54;;;;;;;4.07;3.88;;;;;;;;;;5113966;28;20047;-82
2023/06/18 13:42:22;;;;;;;5.32;4.82;;;;;;;;;;5113696;28;20079;-82
2023/06/18 13:44:50;;;;;;;4.85;4.45;;;;;;;;;;5119666;28;20058;-82
2023/06/18 13:47:17;;;;;;;4.68;4.28;;;;;;;;;;5112233;28;20051;-82
2023/06/18 13:49:47;;;;;;;5.90;4.18;;;;;;;;;;5112405;28;20040;-82
2023/06/18 13:52:14;;;;;;;4.57;4.18;;;;;;;;;;5112494;28;20052;-82
2023/06/18 13:54:41;;;;;;;5.18;4.47;;;;;;;;;;5112841;28;20449;-82
2023/06/18 13:57:08;;;;;;;4.63;4.22;;;;;;;;;;5113461;28;20078;-82
2023/06/18 13:59:36;;;;;;;4.55;4.25;;;;;;;;;;5112474;28;20096;-82
2023/06/18 14:02:03;;;;;;;4.65;4.00;;;;;;;;;;5111915;28;20047;-82
2023/06/18 14:04:35;;;;;;;4.50;4.20;;;;;;;;;;5111621;28;20055;-81
2023/06/18 14:07:03;;;;;;;4.80;4.28;;;;;;;;;;5112364;28;20047;-81
2023/06/18 14:09:31;;;;;;;4.22;4.03;;;;;;;;;;5113441;28;20048;-82
2023/06/18 14:11:58;;;;;;;4.25;4.05;;;;;;;;;;5113285;28;20051;-82
2023/06/18 14:14:25;;;;;;;4.80;4.40;;;;;;;;;;5112396;28;20082;-82
2023/06/18 14:16:53;;;;;;;4.40;4.13;;;;;;;;;;5113337;28;20454;-82
2023/06/18 14:19:20;;;;;;;5.47;3.95;;;;;;;;;;5112172;28;20051;-84
2023/06/18 14:21:47;;;;;;;5.07;4.68;;;;;;;;;;5113397;28;20153;-82
2023/06/18 14:24:15;;;;;;;5.65;4.10;;;;;;;;;;5111846;28;20077;-83
2023/06/18 14:26:42;;;;;;;5.32;4.82;;;;;;;;;;5113182;28;20555;-82
2023/06/18 14:29:10;;;;;;;4.20;3.90;;;;;;;;;;5113404;28;20055;-82
2023/06/18 14:31:37;;;;;;;5.20;4.80;;;;;;;;;;5112970;28;20503;-83
2023/06/18 14:34:05;;;;;;;4.80;4.40;;;;;;;;;;5112044;28;20055;-82
2023/06/18 14:36:36;;;;;;;5.35;4.82;;;;;;;;;;5112656;28;20551;-82
2023/06/18 14:39:06;;;;;;;4.38;4.07;;;;;;;;;;5113220;28;20484;-81
2023/06/18 14:41:33;;;;;;;5.18;4.70;;;;;;;;;;5112196;28;20130;-83